Time;durP1;ratioP1;P1;durP2;ratioP2;P2;SDS_P1;SDS_P2;PMS_P1;PMS_P2;Temp;Humidity;BMP_temperature;BMP_pressure;BME280_temperature;BME280_humidity;BME280_pressure;Samples;Min_cycle;Max_cycle;Signal;HPM_P1;HPM_P2
2022/02/07 00:00:25;;;;;;;;;;;22.10;37.80;;;;;;687110;28;1223;-82
2022/02/07 00:00:47;;;;;;;;;;;22.10;37.80;;;;;;684704;28;1388;-82
2022/02/07 00:01:20;;;;;;;;;;;22.10;37.80;;;;;;686003;28;1484;-85
2022/02/07 00:02:01;;;;;;;;;;;23.70;38.70;;;;;;687706;28;1559;-82
2022/02/07 00:02:23;;;;;;;;;;;22.10;37.90;;;;;;687387;28;1220;-84
2022/02/07 00:03:22;;;;;;;;;;;22.10;37.80;;;;;;688611;28;1257;-84
2022/02/07 00:04:06;;;;;;;;;;;22.10;37.80;;;;;;687315;28;1406;-82
2022/02/07 00:04:34;;;;;;;;;;;22.10;38.00;;;;;;687150;28;1185;-83
2022/02/07 00:04:55;;;;;;;;;;;22.10;37.70;;;;;;684330;28;1362;-85
2022/02/07 00:05:21;;;;;;;;;;;22.10;37.90;;;;;;684360;28;1474;-84
2022/02/07 00:05:42;;;;;;;;;;;22.10;37.80;;;;;;685147;28;1402;-82
2022/02/07 00:06:04;;;;;;;;;;;22.10;38.40;;;;;;684907;28;1334;-84
2022/02/07 00:06:25;;;;;;;;;;;22.10;37.90;;;;;;684403;28;1459;-84
2022/02/07 00:06:45;;;;;;;;;;;22.10;37.90;;;;;;686014;28;1196;-84
2022/02/07 00:07:06;;;;;;;;;;;22.10;37.90;;;;;;687655;28;1216;-84
2022/02/07 00:07:26;;;;;;;;;;;22.10;37.90;;;;;;687949;28;1359;-84
2022/02/07 00:07:47;;;;;;;;;;;22.10;37.90;;;;;;685055;28;1519;-84
2022/02/07 00:08:09;;;;;;;;;;;22.10;37.90;;;;;;686043;28;1489;-83
2022/02/07 00:08:32;;;;;;;;;;;22.10;37.90;;;;;;688261;28;1328;-83
2022/02/07 00:08:58;;;;;;;;;;;22.10;38.10;;;;;;682340;28;1401;-82
2022/02/07 00:09:29;;;;;;;;;;;22.10;37.80;;;;;;682665;28;1402;-82
2022/02/07 00:09:49;;;;;;;;;;;21.90;37.70;;;;;;681873;28;1605;-81
2022/02/07 00:10:10;;;;;;;;;;;22.00;38.60;;;;;;679046;29;1407;-84
2022/02/07 00:10:31;;;;;;;;;;;22.10;38.00;;;;;;678829;29;1431;-83
2022/02/07 00:10:51;;;;;;;;;;;22.10;37.90;;;;;;676627;29;1480;-82
2022/02/07 00:11:12;;;;;;;;;;;22.10;37.90;;;;;;673987;29;1400;-81
2022/02/07 00:11:34;;;;;;;;;;;22.10;37.80;;;;;;673875;29;1414;-83
2022/02/07 00:11:58;;;;;;;;;;;22.10;37.80;;;;;;674680;29;1244;-85
2022/02/07 00:12:19;;;;;;;;;;;22.10;37.80;;;;;;677026;29;1389;-82
2022/02/07 00:12:41;;;;;;;;;;;22.10;37.80;;;;;;677667;29;1529;-83
2022/02/07 00:13:01;;;;;;;;;;;22.10;38.90;;;;;;680362;28;1230;-82
2022/02/07 00:13:22;;;;;;;;;;;22.10;37.90;;;;;;682395;28;1327;-85
2022/02/07 00:13:43;;;;;;;;;;;22.10;37.80;;;;;;681770;28;1628;-86
2022/02/07 00:14:03;;;;;;;;;;;22.10;37.80;;;;;;682162;28;1232;-83
2022/02/07 00:14:24;;;;;;;;;;;22.10;37.80;;;;;;682335;28;1365;-83
2022/02/07 00:14:44;;;;;;;;;;;22.10;37.90;;;;;;679680;28;1425;-83
2022/02/07 00:15:08;;;;;;;;;;;22.10;37.80;;;;;;677639;29;1385;-83
2022/02/07 00:15:28;;;;;;;;;;;22.10;37.80;;;;;;677097;29;1559;-82
2022/02/07 00:15:49;;;;;;;;;;;22.10;37.80;;;;;;677642;29;1219;-85
2022/02/07 00:16:10;;;;;;;;;;;22.10;37.90;;;;;;678193;29;1508;-81
2022/02/07 00:16:32;;;;;;;;;;;22.10;37.70;;;;;;679896;28;1465;-83
2022/02/07 00:16:52;;;;;;;;;;;22.10;37.80;;;;;;682362;28;1934;-83
2022/02/07 00:17:13;;;;;;;;;;;22.10;37.80;;;;;;683639;28;1391;-83
2022/02/07 00:17:34;;;;;;;;;;;22.10;37.90;;;;;;681873;28;1475;-82
2022/02/07 00:17:55;;;;;;;;;;;22.10;37.80;;;;;;681968;28;1280;-84
2022/02/07 00:18:16;;;;;;;;;;;22.10;37.80;;;;;;682284;28;1570;-82
2022/02/07 00:18:38;;;;;;;;;;;22.10;37.80;;;;;;682265;28;1384;-83
2022/02/07 00:18:59;;;;;;;;;;;22.10;37.80;;;;;;679875;28;1230;-82
2022/02/07 00:19:24;;;;;;;;;;;22.10;37.80;;;;;;680441;28;1438;-85
2022/02/07 00:19:44;;;;;;;;;;;22.10;37.80;;;;;;682039;28;1551;-82
2022/02/07 00:20:10;;;;;;;;;;;22.10;37.80;;;;;;682413;28;1531;-84
2022/02/07 00:20:31;;;;;;;;;;;22.10;37.80;;;;;;679390;29;1389;-86
2022/02/07 00:20:52;;;;;;;;;;;22.10;37.80;;;;;;681239;28;1468;-84
2022/02/07 00:21:13;;;;;;;;;;;22.10;37.80;;;;;;681727;28;1184;-85
2022/02/07 00:21:33;;;;;;;;;;;22.10;38.10;;;;;;679065;28;1538;-84
2022/02/07 00:21:55;;;;;;;;;;;22.00;37.70;;;;;;679791;28;1488;-85
2022/02/07 00:22:16;;;;;;;;;;;22.10;37.80;;;;;;679876;28;1214;-83
2022/02/07 00:22:37;;;;;;;;;;;22.10;38.30;;;;;;682437;28;1376;-85
2022/02/07 00:22:57;;;;;;;;;;;22.10;37.90;;;;;;682138;28;1368;-84
2022/02/07 00:23:18;;;;;;;;;;;22.10;37.80;;;;;;682576;28;1521;-83
2022/02/07 00:23:39;;;;;;;;;;;22.10;37.90;;;;;;684998;28;1419;-85
2022/02/07 00:24:00;;;;;;;;;;;22.10;37.90;;;;;;684860;28;1431;-84
2022/02/07 00:24:20;;;;;;;;;;;22.10;38.00;;;;;;684286;28;1284;-85
2022/02/07 00:24:41;;;;;;;;;;;22.10;38.20;;;;;;681800;28;1357;-84
2022/02/07 00:25:02;;;;;;;;;;;22.10;37.70;;;;;;679245;29;1484;-85
2022/02/07 00:25:22;;;;;;;;;;;22.10;37.80;;;;;;679288;29;1247;-82
2022/02/07 00:25:43;;;;;;;;;;;22.10;37.80;;;;;;679719;29;1338;-84
2022/02/07 00:26:04;;;;;;;;;;;22.10;37.70;;;;;;679322;29;1338;-86
2022/02/07 00:26:24;;;;;;;;;;;22.10;38.10;;;;;;679672;28;1249;-84
2022/02/07 00:26:45;;;;;;;;;;;22.10;37.70;;;;;;679576;28;1424;-86
2022/02/07 00:27:05;;;;;;;;;;;22.10;38.40;;;;;;682038;28;1480;-83
2022/02/07 00:27:26;;;;;;;;;;;22.10;37.70;;;;;;682743;28;1261;-84
2022/02/07 00:27:47;;;;;;;;;;;22.10;37.70;;;;;;682364;28;1257;-84
2022/02/07 00:28:08;;;;;;;;;;;22.10;37.80;;;;;;682073;28;1467;-84
2022/02/07 00:28:28;;;;;;;;;;;22.10;38.00;;;;;;682344;28;1293;-86
2022/02/07 00:28:51;;;;;;;;;;;22.10;37.70;;;;;;684328;28;1245;-83
2022/02/07 00:29:11;;;;;;;;;;;22.10;37.80;;;;;;683850;28;1435;-83
2022/02/07 00:29:32;;;;;;;;;;;22.10;37.80;;;;;;681901;28;1406;-85
2022/02/07 00:29:53;;;;;;;;;;;22.10;38.10;;;;;;682680;28;1330;-85
2022/02/07 00:30:15;;;;;;;;;;;22.00;38.30;;;;;;684486;28;1464;-84
2022/02/07 00:30:35;;;;;;;;;;;22.10;37.90;;;;;;684052;28;1359;-85
2022/02/07 00:30:56;;;;;;;;;;;22.10;37.70;;;;;;685150;28;1475;-85
2022/02/07 00:31:16;;;;;;;;;;;22.10;37.80;;;;;;684574;28;1336;-84
2022/02/07 00:31:37;;;;;;;;;;;22.10;38.20;;;;;;683912;28;1394;-86
2022/02/07 00:31:58;;;;;;;;;;;22.10;38.50;;;;;;681145;28;1534;-84
2022/02/07 00:32:18;;;;;;;;;;;22.10;37.90;;;;;;681008;28;1638;-86
2022/02/07 00:32:39;;;;;;;;;;;22.00;38.00;;;;;;681374;28;1351;-85
2022/02/07 00:32:59;;;;;;;;;;;22.10;37.80;;;;;;681907;28;1357;-83
2022/02/07 00:33:20;;;;;;;;;;;22.10;37.80;;;;;;681509;28;1543;-84
2022/02/07 00:33:40;;;;;;;;;;;22.10;38.10;;;;;;682152;28;1297;-84
2022/02/07 00:34:01;;;;;;;;;;;22.10;38.00;;;;;;682659;28;1356;-81
2022/02/07 00:34:22;;;;;;;;;;;22.10;38.60;;;;;;679677;28;1500;-83
2022/02/07 00:34:42;;;;;;;;;;;22.10;38.90;;;;;;678750;29;1320;-83
2022/02/07 00:35:03;;;;;;;;;;;22.10;39.30;;;;;;680109;28;1318;-84
2022/02/07 00:35:25;;;;;;;;;;;22.10;39.00;;;;;;676510;29;1513;-85
2022/02/07 00:35:45;;;;;;;;;;;22.10;39.20;;;;;;674795;29;1368;-85
2022/02/07 00:36:06;;;;;;;;;;;22.10;39.40;;;;;;677633;29;1485;-86
2022/02/07 00:36:27;;;;;;;;;;;22.10;39.30;;;;;;679782;29;1426;-83
2022/02/07 00:36:48;;;;;;;;;;;22.10;39.80;;;;;;679641;29;1927;-81
2022/02/07 00:37:08;;;;;;;;;;;22.10;39.50;;;;;;680371;28;1413;-85
2022/02/07 00:37:31;;;;;;;;;;;22.10;39.10;;;;;;679714;28;1542;-83
2022/02/07 00:37:54;;;;;;;;;;;22.10;38.90;;;;;;682973;28;1512;-84
2022/02/07 00:38:19;;;;;;;;;;;22.20;39.00;;;;;;679894;29;1630;-84
2022/02/07 00:38:42;;;;;;;;;;;22.10;39.40;;;;;;679823;29;1377;-83
2022/02/07 00:39:09;;;;;;;;;;;22.10;39.20;;;;;;680028;29;1573;-84
2022/02/07 00:39:37;;;;;;;;;;;22.10;39.30;;;;;;680206;28;1400;-82
2022/02/07 00:40:16;;;;;;;;;;;22.10;39.00;;;;;;680485;28;1436;-82
2022/02/07 00:41:26;;;;;;;;;;;22.20;38.90;;;;;;683460;28;1388;-85
2022/02/07 00:41:57;;;;;;;;;;;22.20;38.80;;;;;;683573;28;1433;-83
2022/02/07 00:42:27;;;;;;;;;;;22.20;39.00;;;;;;684451;28;1312;-85
2022/02/07 00:43:01;;;;;;;;;;;22.20;39.00;;;;;;682606;28;1394;-84
2022/02/07 00:43:44;;;;;;;;;;;22.20;38.90;;;;;;681959;28;1223;-83
2022/02/07 00:44:12;;;;;;;;;;;22.20;39.00;;;;;;683196;28;1528;-86
2022/02/07 00:44:33;;;;;;;;;;;22.20;39.00;;;;;;684167;28;1220;-86
2022/02/07 00:44:55;;;;;;;;;;;22.20;39.10;;;;;;686123;28;1400;-87
2022/02/07 00:45:25;;;;;;;;;;;22.20;40.30;;;;;;683709;28;1417;-87
2022/02/07 00:46:12;;;;;;;;;;;22.20;39.00;;;;;;682577;28;1318;-85
2022/02/07 00:46:35;;;;;;;;;;;22.20;39.10;;;;;;682241;28;1430;-86
2022/02/07 00:47:05;;;;;;;;;;;22.20;40.00;;;;;;679817;29;1226;-86
2022/02/07 00:47:26;;;;;;;;;;;22.20;38.70;;;;;;684393;28;1301;-86
2022/02/07 00:47:46;;;;;;;;;;;22.20;38.80;;;;;;684690;28;1474;-85
2022/02/07 00:48:08;;;;;;;;;;;22.20;38.70;;;;;;684749;28;1205;-83
2022/02/07 00:48:28;;;;;;;;;;;22.20;38.70;;;;;;682285;28;1333;-85
2022/02/07 00:48:49;;;;;;;;;;;22.20;38.90;;;;;;683737;28;1452;-85
2022/02/07 00:49:09;;;;;;;;;;;22.20;38.80;;;;;;682448;28;1303;-82
2022/02/07 00:49:30;;;;;;;;;;;22.20;38.80;;;;;;682960;28;1380;-87
2022/02/07 00:49:50;;;;;;;;;;;22.20;39.40;;;;;;684438;28;1511;-88
2022/02/07 00:50:11;;;;;;;;;;;22.20;39.00;;;;;;683293;28;1252;-85
2022/02/07 00:50:32;;;;;;;;;;;22.20;38.80;;;;;;682722;28;1273;-86
2022/02/07 00:50:55;;;;;;;;;;;22.20;38.90;;;;;;681032;28;1305;-87
2022/02/07 00:51:16;;;;;;;;;;;22.20;38.90;;;;;;682875;28;1259;-87
2022/02/07 00:51:37;;;;;;;;;;;22.20;39.00;;;;;;683643;28;1423;-84
2022/02/07 00:51:57;;;;;;;;;;;22.20;39.10;;;;;;680695;28;1533;-85
2022/02/07 00:52:18;;;;;;;;;;;22.20;38.80;;;;;;680778;28;1315;-87
2022/02/07 00:52:38;;;;;;;;;;;22.20;39.00;;;;;;683175;28;1264;-86
2022/02/07 00:52:59;;;;;;;;;;;22.20;39.10;;;;;;685247;28;1360;-87
2022/02/07 00:53:19;;;;;;;;;;;22.20;38.80;;;;;;685733;28;1628;-84
2022/02/07 00:53:40;;;;;;;;;;;22.20;38.80;;;;;;682089;28;1420;-83
2022/02/07 00:54:00;;;;;;;;;;;22.20;38.70;;;;;;679857;28;1548;-84
2022/02/07 00:54:21;;;;;;;;;;;22.20;38.80;;;;;;677764;28;1282;-84
2022/02/07 00:54:41;;;;;;;;;;;22.20;38.70;;;;;;678405;29;1405;-84
2022/02/07 00:55:02;;;;;;;;;;;22.20;38.80;;;;;;680449;28;1476;-83
2022/02/07 00:55:23;;;;;;;;;;;22.20;38.90;;;;;;682535;28;1543;-84
2022/02/07 00:55:44;;;;;;;;;;;22.20;38.60;;;;;;685600;28;1348;-84
2022/02/07 00:56:05;;;;;;;;;;;22.20;39.20;;;;;;688165;28;1451;-84
2022/02/07 00:56:25;;;;;;;;;;;22.20;39.00;;;;;;690534;28;1369;-86
2022/02/07 00:56:46;;;;;;;;;;;22.30;39.10;;;;;;690454;28;1208;-84
2022/02/07 00:57:06;;;;;;;;;;;22.20;39.00;;;;;;687899;28;1910;-84
2022/02/07 00:57:27;;;;;;;;;;;22.20;40.00;;;;;;687772;28;1319;-86
2022/02/07 00:57:48;;;;;;;;;;;22.20;39.20;;;;;;688319;28;1464;-85
2022/02/07 00:58:08;;;;;;;;;;;22.20;38.80;;;;;;685118;28;1337;-83
2022/02/07 00:58:29;;;;;;;;;;;22.20;38.70;;;;;;682514;28;1344;-85
2022/02/07 00:58:49;;;;;;;;;;;22.20;38.70;;;;;;680280;29;1365;-82
2022/02/07 00:59:10;;;;;;;;;;;22.20;38.70;;;;;;682478;28;1353;-85
2022/02/07 00:59:30;;;;;;;;;;;22.20;38.70;;;;;;682687;28;1349;-85
2022/02/07 00:59:51;;;;;;;;;;;22.30;38.60;;;;;;683392;28;1345;-83
2022/02/07 01:00:12;;;;;;;;;;;22.30;38.80;;;;;;685739;28;1376;-85
2022/02/07 01:00:33;;;;;;;;;;;22.20;38.50;;;;;;685898;28;1449;-84
2022/02/07 01:00:53;;;;;;;;;;;22.20;38.50;;;;;;688502;28;1552;-84
2022/02/07 01:01:14;;;;;;;;;;;22.30;38.60;;;;;;686147;28;1502;-85
2022/02/07 01:01:35;;;;;;;;;;;22.30;38.70;;;;;;686201;28;1239;-83
2022/02/07 01:01:55;;;;;;;;;;;22.20;38.70;;;;;;686289;28;1348;-86
2022/02/07 01:02:16;;;;;;;;;;;22.20;38.80;;;;;;685311;28;1468;-87
2022/02/07 01:02:37;;;;;;;;;;;22.20;38.80;;;;;;685431;28;1279;-83
2022/02/07 01:02:58;;;;;;;;;;;22.20;39.00;;;;;;685834;28;1344;-84
2022/02/07 01:03:22;;;;;;;;;;;22.20;39.00;;;;;;688207;28;1502;-85
2022/02/07 01:03:42;;;;;;;;;;;22.20;39.10;;;;;;690683;28;1520;-87
2022/02/07 01:04:03;;;;;;;;;;;22.20;39.00;;;;;;691292;28;1445;-84
2022/02/07 01:04:24;;;;;;;;;;;22.20;39.10;;;;;;688384;28;1427;-86
2022/02/07 01:04:45;;;;;;;;;;;22.20;39.20;;;;;;688632;28;1291;-86
2022/02/07 01:05:06;;;;;;;;;;;22.20;38.70;;;;;;688358;28;1308;-85
2022/02/07 01:05:27;;;;;;;;;;;22.20;38.70;;;;;;687932;28;1482;-82
2022/02/07 01:05:47;;;;;;;;;;;22.10;38.70;;;;;;686943;28;1363;-86
2022/02/07 01:06:08;;;;;;;;;;;22.20;38.80;;;;;;685158;28;1440;-84
2022/02/07 01:06:28;;;;;;;;;;;22.20;38.40;;;;;;686756;28;1356;-85
2022/02/07 01:06:49;;;;;;;;;;;22.20;38.50;;;;;;685200;28;1348;-85
2022/02/07 01:07:10;;;;;;;;;;;22.10;38.50;;;;;;685084;28;1496;-81
2022/02/07 01:07:31;;;;;;;;;;;22.10;38.20;;;;;;687981;28;1287;-85
2022/02/07 01:07:52;;;;;;;;;;;22.20;38.20;;;;;;687891;28;1343;-84
2022/02/07 01:08:15;;;;;;;;;;;22.10;38.00;;;;;;687706;28;1501;-87
2022/02/07 01:08:47;;;;;;;;;;;22.10;38.00;;;;;;691003;28;1467;-85
2022/02/07 01:09:38;;;;;;;;;;;22.10;37.90;;;;;;691465;28;698;-82
2022/02/07 01:09:59;;;;;;;;;;;22.10;38.10;;;;;;691484;28;924;-83
2022/02/07 01:10:25;;;;;;;;;;;22.10;38.00;;;;;;691276;28;1483;-84
2022/02/07 01:11:05;;;;;;;;;;;22.10;37.90;;;;;;691422;28;967;-86
2022/02/07 01:12:26;;;;;;;;;;;22.10;38.00;;;;;;691730;28;704;-85
2022/02/07 01:13:38;;;;;;;;;;;22.10;39.00;;;;;;691729;28;620;-86
2022/02/07 01:14:59;;;;;;;;;;;22.10;37.80;;;;;;691756;28;763;-83
2022/02/07 01:15:29;;;;;;;;;;;22.10;37.80;;;;;;689529;28;1113;-81
2022/02/07 01:16:29;;;;;;;;;;;22.10;39.00;;;;;;691385;28;949;-83
2022/02/07 01:18:29;;;;;;;;;;;22.00;38.00;;;;;;691540;28;664;-84
2022/02/07 01:19:51;;;;;;;;;;;22.10;37.90;;;;;;691700;28;849;-83
2022/02/07 01:23:12;;;;;;;;;;;22.00;38.10;;;;;;691656;28;1247;-83
2022/02/07 01:45:59;;;;;;;;;;;22.00;38.00;;;;;;691486;28;639;-85
2022/02/07 01:47:06;;;;;;;;;;;21.90;38.10;;;;;;688909;28;1302;-84
2022/02/07 01:54:09;;;;;;;;;;;21.90;38.10;;;;;;680652;29;634;-83
2022/02/07 01:54:40;;;;;;;;;;;21.90;38.10;;;;;;680431;29;1104;-83
2022/02/07 01:55:18;;;;;;;;;;;21.90;38.40;;;;;;677852;29;864;-82
2022/02/07 01:55:41;;;;;;;;;;;21.90;38.10;;;;;;678154;29;696;-84
2022/02/07 01:56:05;;;;;;;;;;;21.90;38.30;;;;;;678005;29;862;-82
2022/02/07 01:56:29;;;;;;;;;;;21.90;38.10;;;;;;678027;29;858;-83
2022/02/07 01:56:49;;;;;;;;;;;21.90;38.30;;;;;;678921;29;824;-84
2022/02/07 01:57:12;;;;;;;;;;;21.90;38.30;;;;;;680556;29;1278;-83
2022/02/07 01:57:32;;;;;;;;;;;21.90;38.10;;;;;;680581;29;1196;-83
2022/02/07 01:57:53;;;;;;;;;;;21.90;38.20;;;;;;680473;29;1330;-83
2022/02/07 01:58:14;;;;;;;;;;;21.90;38.10;;;;;;680595;29;906;-84
2022/02/07 01:58:34;;;;;;;;;;;21.90;38.10;;;;;;680015;29;851;-84
2022/02/07 01:58:55;;;;;;;;;;;21.90;38.30;;;;;;678179;29;1263;-84
2022/02/07 01:59:15;;;;;;;;;;;21.90;38.10;;;;;;680344;29;803;-83
2022/02/07 01:59:36;;;;;;;;;;;21.90;38.10;;;;;;679884;29;1470;-84
2022/02/07 01:59:57;;;;;;;;;;;21.90;38.10;;;;;;680609;29;843;-83
2022/02/07 02:00:18;;;;;;;;;;;21.90;38.10;;;;;;677704;29;1315;-83
2022/02/07 02:00:39;;;;;;;;;;;21.90;38.10;;;;;;675589;29;1246;-83
2022/02/07 02:01:00;;;;;;;;;;;21.90;38.10;;;;;;677844;29;1388;-83
2022/02/07 02:01:23;;;;;;;;;;;21.90;38.10;;;;;;677821;29;1352;-83
2022/02/07 02:01:43;;;;;;;;;;;21.90;38.10;;;;;;678002;29;506;-82
2022/02/07 02:02:05;;;;;;;;;;;21.90;38.10;;;;;;678632;29;839;-83
2022/02/07 02:02:25;;;;;;;;;;;21.90;38.10;;;;;;683900;28;1266;-86
2022/02/07 02:02:46;;;;;;;;;;;21.90;38.10;;;;;;682532;29;926;-83
2022/02/07 02:03:07;;;;;;;;;;;21.90;38.10;;;;;;681303;29;811;-84
2022/02/07 02:03:28;;;;;;;;;;;21.90;38.10;;;;;;683190;29;855;-84
2022/02/07 02:03:48;;;;;;;;;;;21.90;38.10;;;;;;683158;29;907;-84
2022/02/07 02:04:09;;;;;;;;;;;21.90;38.10;;;;;;683050;29;772;-84
2022/02/07 02:04:30;;;;;;;;;;;21.90;38.10;;;;;;680888;29;803;-84
2022/02/07 02:04:50;;;;;;;;;;;21.90;38.10;;;;;;682950;28;882;-85
2022/02/07 02:05:11;;;;;;;;;;;21.90;38.10;;;;;;682816;29;903;-82
2022/02/07 02:05:36;;;;;;;;;;;21.90;38.30;;;;;;682762;29;949;-84
2022/02/07 02:05:57;;;;;;;;;;;21.90;38.20;;;;;;683112;29;855;-83
2022/02/07 02:06:22;;;;;;;;;;;21.90;38.10;;;;;;683164;29;933;-82
2022/02/07 02:06:44;;;;;;;;;;;21.50;37.90;;;;;;685912;28;1177;-83
2022/02/07 02:07:04;;;;;;;;;;;21.90;38.10;;;;;;682987;29;1120;-83
2022/02/07 02:07:25;;;;;;;;;;;21.90;38.30;;;;;;683202;29;1371;-83
2022/02/07 02:07:48;;;;;;;;;;;21.90;38.10;;;;;;683211;29;918;-83
2022/02/07 02:08:10;;;;;;;;;;;21.90;38.30;;;;;;683259;29;1308;-83
2022/02/07 02:08:31;;;;;;;;;;;21.90;38.10;;;;;;679513;29;1621;-84
2022/02/07 02:08:54;;;;;;;;;;;21.90;38.10;;;;;;678721;29;882;-82
2022/02/07 02:09:15;;;;;;;;;;;21.90;38.30;;;;;;680590;29;834;-83
2022/02/07 02:09:35;;;;;;;;;;;21.90;38.10;;;;;;677760;29;1221;-84
2022/02/07 02:09:56;;;;;;;;;;;21.90;38.20;;;;;;677906;29;785;-84
2022/02/07 02:10:17;;;;;;;;;;;21.90;38.50;;;;;;678470;29;1304;-83
2022/02/07 02:10:46;;;;;;;;;;;21.90;38.10;;;;;;680557;29;1390;-82
2022/02/07 02:11:06;;;;;;;;;;;21.90;38.50;;;;;;680493;29;1280;-82
2022/02/07 02:11:27;;;;;;;;;;;21.90;38.10;;;;;;681804;29;1197;-83
2022/02/07 02:11:47;;;;;;;;;;;21.90;38.20;;;;;;683099;29;1327;-84
2022/02/07 02:12:08;;;;;;;;;;;21.90;38.10;;;;;;683306;29;815;-84
2022/02/07 02:12:33;;;;;;;;;;;21.90;38.20;;;;;;679145;29;899;-84
2022/02/07 02:13:02;;;;;;;;;;;21.90;38.30;;;;;;681169;29;1328;-82
2022/02/07 02:13:27;;;;;;;;;;;21.90;38.40;;;;;;683136;29;867;-80
2022/02/07 02:16:27;;;;;;;;;;;21.90;38.20;;;;;;672844;29;768;-82
2022/02/07 02:17:12;;;;;;;;;;;21.90;38.10;;;;;;672630;29;909;-84
2022/02/07 02:20:57;;;;;;;;;;;21.90;38.10;;;;;;671813;29;1324;-82
2022/02/07 02:33:42;;;;;;;;;;;22.00;38.60;;;;;;677871;29;867;-83
2022/02/07 02:36:33;;;;;;;;;;;22.00;38.60;;;;;;675215;29;1365;-85
2022/02/07 02:38:09;;;;;;;;;;;22.00;38.40;;;;;;675274;29;650;-83
2022/02/07 02:45:29;;;;;;;;;;;22.10;38.20;;;;;;670182;29;677;-83
2022/02/07 02:45:49;;;;;;;;;;;22.00;38.20;;;;;;669979;29;1326;-84
2022/02/07 02:46:16;;;;;;;;;;;22.00;38.20;;;;;;670242;29;879;-84
2022/02/07 02:46:37;;;;;;;;;;;22.10;38.20;;;;;;670249;29;843;-85
2022/02/07 02:46:58;;;;;;;;;;;22.10;38.20;;;;;;670039;29;821;-81
2022/02/07 02:47:24;;;;;;;;;;;22.00;38.30;;;;;;670126;29;809;-85
2022/02/07 02:47:45;;;;;;;;;;;22.10;38.20;;;;;;670156;29;1257;-85
2022/02/07 02:48:11;;;;;;;;;;;22.10;38.30;;;;;;670168;29;1004;-85
2022/02/07 02:48:34;;;;;;;;;;;22.10;38.20;;;;;;669970;29;892;-84
2022/02/07 02:49:00;;;;;;;;;;;22.10;38.20;;;;;;667443;29;1093;-84
2022/02/07 02:49:22;;;;;;;;;;;22.10;38.10;;;;;;668110;29;1259;-84
2022/02/07 02:49:47;;;;;;;;;;;22.10;38.40;;;;;;667501;29;1435;-84
2022/02/07 02:50:26;;;;;;;;;;;21.60;38.00;;;;;;667613;29;879;-84
2022/02/07 02:50:53;;;;;;;;;;;22.10;38.10;;;;;;668823;29;1204;-85
2022/02/07 02:51:15;;;;;;;;;;;22.10;38.10;;;;;;669924;29;963;-83
2022/02/07 02:51:36;;;;;;;;;;;23.20;38.90;;;;;;667511;29;1016;-81
2022/02/07 02:51:56;;;;;;;;;;;22.10;38.80;;;;;;668111;29;1314;-84
2022/02/07 02:52:17;;;;;;;;;;;22.10;39.40;;;;;;667411;29;1279;-85
2022/02/07 02:52:38;;;;;;;;;;;22.10;38.60;;;;;;667709;29;840;-84
2022/02/07 02:53:00;;;;;;;;;;;22.10;38.40;;;;;;668192;29;1131;-84
2022/02/07 02:53:21;;;;;;;;;;;22.10;38.30;;;;;;667967;29;770;-85
2022/02/07 02:53:42;;;;;;;;;;;22.10;38.40;;;;;;670144;29;904;-84
2022/02/07 02:54:02;;;;;;;;;;;22.10;38.60;;;;;;670060;29;860;-85
2022/02/07 02:54:23;;;;;;;;;;;22.10;38.50;;;;;;670295;29;1370;-86
2022/02/07 02:54:44;;;;;;;;;;;22.10;38.60;;;;;;670193;29;884;-83
2022/02/07 02:55:04;;;;;;;;;;;22.10;38.20;;;;;;670081;29;856;-84
2022/02/07 02:55:25;;;;;;;;;;;22.10;38.40;;;;;;670157;29;808;-85
2022/02/07 02:55:47;;;;;;;;;;;22.00;38.50;;;;;;671332;29;1273;-85
2022/02/07 02:56:07;;;;;;;;;;;22.00;38.60;;;;;;672388;29;832;-84
2022/02/07 02:56:28;;;;;;;;;;;22.00;38.40;;;;;;670313;29;1331;-83
2022/02/07 02:56:50;;;;;;;;;;;22.00;38.20;;;;;;669956;29;863;-84
2022/02/07 02:57:11;;;;;;;;;;;22.00;38.20;;;;;;670107;29;1899;-85
2022/02/07 02:57:31;;;;;;;;;;;22.00;38.10;;;;;;670103;29;852;-82
2022/02/07 02:57:52;;;;;;;;;;;22.00;38.00;;;;;;669936;29;959;-84
2022/02/07 02:58:16;;;;;;;;;;;22.00;38.30;;;;;;670216;29;832;-86
2022/02/07 02:58:37;;;;;;;;;;;22.00;38.20;;;;;;672752;29;1318;-86
2022/02/07 02:58:57;;;;;;;;;;;22.00;38.20;;;;;;672692;29;1273;-84
2022/02/07 02:59:18;;;;;;;;;;;22.00;38.20;;;;;;672821;29;1457;-83
2022/02/07 02:59:38;;;;;;;;;;;22.00;38.50;;;;;;672926;29;931;-84
2022/02/07 02:59:59;;;;;;;;;;;22.00;38.20;;;;;;672714;29;820;-84
2022/02/07 03:00:19;;;;;;;;;;;22.00;38.00;;;;;;672628;29;1381;-84
2022/02/07 03:00:41;;;;;;;;;;;22.00;38.10;;;;;;670098;29;825;-86
2022/02/07 03:01:02;;;;;;;;;;;22.00;38.20;;;;;;669715;29;1492;-84
2022/02/07 03:01:22;;;;;;;;;;;22.00;37.90;;;;;;667497;29;939;-84
2022/02/07 03:01:43;;;;;;;;;;;22.00;38.00;;;;;;667574;29;801;-86
2022/02/07 03:02:03;;;;;;;;;;;22.00;38.10;;;;;;667884;29;789;-84
2022/02/07 03:02:24;;;;;;;;;;;21.90;38.10;;;;;;672507;29;1203;-85
2022/02/07 03:02:44;;;;;;;;;;;22.00;38.20;;;;;;672806;29;785;-85
2022/02/07 03:03:05;;;;;;;;;;;21.90;38.00;;;;;;672546;29;844;-84
2022/02/07 03:03:26;;;;;;;;;;;21.90;38.10;;;;;;672489;29;1344;-84
2022/02/07 03:03:46;;;;;;;;;;;21.90;38.00;;;;;;672865;29;931;-86
2022/02/07 03:04:07;;;;;;;;;;;21.90;38.00;;;;;;672476;29;1108;-84
2022/02/07 03:04:27;;;;;;;;;;;21.90;38.20;;;;;;670121;29;1063;-81
2022/02/07 03:04:48;;;;;;;;;;;21.90;38.40;;;;;;669835;29;946;-85
2022/02/07 03:05:08;;;;;;;;;;;21.90;38.40;;;;;;667890;29;963;-80
2022/02/07 03:05:29;;;;;;;;;;;21.90;38.10;;;;;;670042;29;784;-84
2022/02/07 03:05:51;;;;;;;;;;;21.90;38.10;;;;;;670163;29;1265;-84
2022/02/07 03:06:11;;;;;;;;;;;21.90;38.10;;;;;;670134;29;1312;-85
2022/02/07 03:06:32;;;;;;;;;;;21.90;38.10;;;;;;672512;29;1361;-83
2022/02/07 03:06:52;;;;;;;;;;;21.90;38.10;;;;;;672516;29;1112;-84
2022/02/07 03:07:13;;;;;;;;;;;21.90;38.10;;;;;;672726;29;906;-85
2022/02/07 03:07:33;;;;;;;;;;;21.90;38.10;;;;;;672596;29;796;-85
2022/02/07 03:07:54;;;;;;;;;;;21.90;38.10;;;;;;669887;29;1101;-85
2022/02/07 03:08:16;;;;;;;;;;;21.90;38.00;;;;;;669940;29;835;-85
2022/02/07 03:08:38;;;;;;;;;;;21.90;38.10;;;;;;670037;29;1294;-84
2022/02/07 03:09:00;;;;;;;;;;;21.90;38.10;;;;;;670104;29;918;-85
2022/02/07 03:09:21;;;;;;;;;;;21.90;38.10;;;;;;669998;29;1440;-84
2022/02/07 03:09:48;;;;;;;;;;;21.90;38.10;;;;;;670899;29;848;-84
2022/02/07 03:10:09;;;;;;;;;;;21.90;38.10;;;;;;672851;29;903;-85
2022/02/07 03:10:46;;;;;;;;;;;21.90;38.10;;;;;;671072;29;789;-85
2022/02/07 03:11:18;;;;;;;;;;;21.90;38.10;;;;;;675834;29;851;-85
2022/02/07 03:11:38;;;;;;;;;;;21.90;38.10;;;;;;680051;29;951;-86
2022/02/07 03:11:59;;;;;;;;;;;21.90;38.30;;;;;;680369;29;889;-86
2022/02/07 03:12:19;;;;;;;;;;;21.90;38.20;;;;;;680338;29;847;-84
2022/02/07 03:12:57;;;;;;;;;;;21.90;38.10;;;;;;680521;29;783;-85
2022/02/07 03:13:33;;;;;;;;;;;21.90;38.20;;;;;;680416;29;894;-84
2022/02/07 03:13:58;;;;;;;;;;;21.90;38.30;;;;;;677728;29;907;-84
2022/02/07 03:14:23;;;;;;;;;;;21.90;38.30;;;;;;677722;29;890;-84
2022/02/07 03:14:46;;;;;;;;;;;21.90;38.50;;;;;;677880;29;898;-84
2022/02/07 03:16:37;;;;;;;;;;;21.90;38.40;;;;;;677893;29;692;-84
2022/02/07 03:16:58;;;;;;;;;;;21.80;38.20;;;;;;682660;29;1906;-83
2022/02/07 03:17:18;;;;;;;;;;;21.90;38.30;;;;;;689873;28;1227;-85
2022/02/07 03:17:39;;;;;;;;;;;21.80;38.30;;;;;;697145;28;1344;-84
2022/02/07 03:18:00;;;;;;;;;;;21.80;38.30;;;;;;697321;28;822;-83
2022/02/07 03:18:20;;;;;;;;;;;21.80;38.30;;;;;;697351;28;940;-84
2022/02/07 03:18:41;;;;;;;;;;;21.90;38.40;;;;;;697242;28;948;-84
2022/02/07 03:19:01;;;;;;;;;;;21.80;38.20;;;;;;696682;28;779;-84
2022/02/07 03:19:22;;;;;;;;;;;21.80;38.40;;;;;;694004;28;1478;-84
2022/02/07 03:19:42;;;;;;;;;;;21.80;38.40;;;;;;692588;28;1284;-84
2022/02/07 03:20:03;;;;;;;;;;;21.90;38.40;;;;;;692608;28;886;-86
2022/02/07 03:20:24;;;;;;;;;;;21.90;38.40;;;;;;692436;28;1058;-85
2022/02/07 03:20:44;;;;;;;;;;;21.80;38.30;;;;;;688920;28;1296;-84
2022/02/07 03:21:05;;;;;;;;;;;21.80;38.20;;;;;;690026;28;834;-85
2022/02/07 03:21:25;;;;;;;;;;;21.90;38.30;;;;;;689185;28;923;-86
2022/02/07 03:21:46;;;;;;;;;;;21.80;38.30;;;;;;691886;28;1417;-86
2022/02/07 03:22:07;;;;;;;;;;;21.90;38.40;;;;;;688712;28;877;-85
2022/02/07 03:22:27;;;;;;;;;;;21.90;38.30;;;;;;688880;28;1254;-84
2022/02/07 03:22:48;;;;;;;;;;;21.90;38.30;;;;;;691250;28;771;-86
2022/02/07 03:23:09;;;;;;;;;;;21.80;38.30;;;;;;691489;28;1165;-85
2022/02/07 03:23:29;;;;;;;;;;;21.80;38.30;;;;;;691730;28;984;-83
2022/02/07 03:23:50;;;;;;;;;;;21.80;38.40;;;;;;691655;28;1394;-84
2022/02/07 03:24:10;;;;;;;;;;;21.80;38.40;;;;;;691064;28;918;-83
2022/02/07 03:24:31;;;;;;;;;;;21.80;38.40;;;;;;688079;28;1229;-84
2022/02/07 03:24:52;;;;;;;;;;;21.80;38.90;;;;;;689006;28;802;-84
2022/02/07 03:25:12;;;;;;;;;;;21.80;38.50;;;;;;691245;28;1432;-82
2022/02/07 03:25:33;;;;;;;;;;;21.80;38.50;;;;;;693069;28;830;-86
2022/02/07 03:25:55;;;;;;;;;;;21.80;38.40;;;;;;692997;28;1116;-86
2022/02/07 03:26:18;;;;;;;;;;;21.80;38.30;;;;;;694023;28;1389;-85